»·PEaware :: N51254 KLAX-KSAN

N51254 :: KLAX-KSAN

FLIGHT INFORMATION

Flight Status: Arrived
Operator: Privately registered:
United States
More flights under this callsign
Pilot: Hasan B. (9605)
Aircraft: CESSNA 172 SKYHAWK
(C172)
More flights by this aircraft type
Origin: KLAX Los Angeles Intl
United States
Destination: KSAN San Diego Intl-Lindbergh
United States
More flights between these airports :: More routes between these airports
Route: +
File this flight plan on PilotEdge
Remarks:
Altitude:
(Current/Filed)
0ft
Speed:
(Current/Filed)
0kts
Departed: 10-Oct-18 01:17 PM
Arrived: 10-Oct-18 02:52 PM
Distance/Time
Traveled:
95nm/1:35
Distance/Time
To Go:
Arrived

Flight Plot

Page will automatically refresh every two minutes.


Map Options




Map Legend


Flown Route
Filed Route
Departure Airport
Arrival Airport
Navaid (VOR, NDB)
Fix

Horizontal Profiles

Position Reports

Time Latitude Longitude Heading Altitude Ground
Speed
10-Oct-18 13:07 33.947829 -118.400820 223 111ft 0kts
10-Oct-18 13:08 33.947829 -118.400820 223 111ft 0kts
10-Oct-18 13:09 33.947829 -118.400820 223 111ft 0kts
10-Oct-18 13:10 33.947829 -118.400820 223 111ft 0kts
10-Oct-18 13:11 33.947829 -118.400820 223 111ft 0kts
10-Oct-18 13:12 33.947829 -118.400820 223 111ft 0kts
10-Oct-18 13:13 33.948219 -118.400374 230 110ft 3kts
10-Oct-18 13:14 33.948794 -118.400585 350 110ft 10kts
10-Oct-18 13:15 33.949024 -118.400703 263 110ft 5kts
10-Oct-18 13:16 33.949057 -118.401049 261 111ft 0kts
10-Oct-18 13:17 33.949317 -118.401634 346 112ft 0kts
10-Oct-18 13:18 33.949322 -118.401635 345 112ft 2kts
10-Oct-18 13:19 33.949290 -118.410098 256 280ft 69kts
10-Oct-18 13:20 33.947621 -118.428780 255 843ft 77kts
10-Oct-18 13:21 33.944660 -118.449499 261 1547ft 75kts
10-Oct-18 13:22 33.942538 -118.470581 261 2158ft 81kts
10-Oct-18 13:23 33.938042 -118.489804 246 2735ft 82kts
10-Oct-18 13:24 33.921282 -118.491722 168 3062ft 93kts
10-Oct-18 13:25 33.904963 -118.479626 146 3022ft 100kts
10-Oct-18 13:26 33.889063 -118.466498 144 3025ft 98kts
10-Oct-18 13:27 33.874947 -118.451980 138 3024ft 98kts
10-Oct-18 13:28 33.858618 -118.435695 144 3015ft 97kts
10-Oct-18 13:29 33.846137 -118.424879 144 3018ft 96kts
10-Oct-18 13:30 33.831430 -118.414292 154 3037ft 96kts
10-Oct-18 13:31 33.813199 -118.408103 170 3057ft 95kts
10-Oct-18 13:32 33.794593 -118.403069 166 3081ft 95kts
10-Oct-18 13:33 33.777666 -118.396955 157 3097ft 95kts
10-Oct-18 13:34 33.760201 -118.386235 150 3273ft 95kts
10-Oct-18 13:35 33.743537 -118.372546 139 3785ft 95kts
10-Oct-18 13:36 33.727458 -118.358099 140 4244ft 96kts
10-Oct-18 13:37 33.711670 -118.342758 140 4733ft 93kts
10-Oct-18 13:38 33.696082 -118.327345 136 5214ft 92kts
10-Oct-18 13:39 33.681965 -118.312276 139 5703ft 89kts
10-Oct-18 13:40 33.669010 -118.298706 140 6268ft 74kts
10-Oct-18 13:41 33.657631 -118.286388 133 6704ft 73kts
10-Oct-18 13:42 33.646800 -118.272354 126 7057ft 81kts
10-Oct-18 13:43 33.633018 -118.261265 142 7402ft 88kts
10-Oct-18 13:44 33.619942 -118.247223 130 7609ft 95kts
10-Oct-18 13:45 33.605780 -118.231411 138 7665ft 100kts
10-Oct-18 13:46 33.589917 -118.216008 149 7605ft 102kts
10-Oct-18 13:47 33.572215 -118.204207 143 7549ft 102kts
10-Oct-18 13:48 33.557493 -118.187310 128 7505ft 102kts
10-Oct-18 13:49 33.545012 -118.168312 130 7538ft 107kts
10-Oct-18 13:50 33.529222 -118.149290 140 7701ft 111kts
10-Oct-18 13:51 33.512212 -118.129906 135 7671ft 124kts
10-Oct-18 13:52 33.494532 -118.110058 137 7625ft 126kts
10-Oct-18 13:53 33.475068 -118.089951 140 7577ft 127kts
10-Oct-18 13:54 33.456449 -118.068723 133 7571ft 125kts
10-Oct-18 13:55 33.438029 -118.047949 134 7561ft 125kts
10-Oct-18 13:56 33.418578 -118.027986 141 7553ft 125kts
10-Oct-18 13:57 33.402440 -118.006270 126 7563ft 124kts
10-Oct-18 13:58 33.387327 -117.983233 130 7568ft 124kts
10-Oct-18 13:59 33.371412 -117.960807 127 7575ft 124kts
10-Oct-18 14:00 33.353349 -117.940247 137 7609ft 122kts
10-Oct-18 14:01 33.335415 -117.920837 134 7637ft 123kts
10-Oct-18 14:02 33.318695 -117.898652 130 7622ft 125kts
10-Oct-18 14:03 33.301586 -117.875606 132 7568ft 126kts
10-Oct-18 14:04 33.285997 -117.852962 129 7580ft 125kts
10-Oct-18 14:05 33.269477 -117.831003 133 7574ft 125kts
10-Oct-18 14:06 33.249960 -117.811979 144 7567ft 125kts
10-Oct-18 14:07 33.231822 -117.792319 133 7590ft 123kts
10-Oct-18 14:08 33.214078 -117.771698 133 7632ft 123kts
10-Oct-18 14:09 33.196820 -117.749847 136 7604ft 126kts
10-Oct-18 14:10 33.178724 -117.730542 138 7622ft 124kts
10-Oct-18 14:11 33.160200 -117.710288 134 7625ft 125kts
10-Oct-18 14:12 33.146088 -117.695045 139 7496ft 102kts
10-Oct-18 14:13 33.129381 -117.676756 131 7507ft 96kts
10-Oct-18 14:14 33.116180 -117.660558 135 7503ft 96kts
10-Oct-18 14:15 33.105065 -117.647314 137 7532ft 96kts
10-Oct-18 14:16 33.093034 -117.633700 132 7583ft 94kts
10-Oct-18 14:17 33.086408 -117.624911 130 7565ft 98kts
10-Oct-18 14:18 33.079196 -117.615389 131 7602ft 96kts
10-Oct-18 14:19 33.071723 -117.602840 85 7353ft 85kts
10-Oct-18 14:20 33.078622 -117.601732 282 6975ft 88kts
10-Oct-18 14:21 33.074774 -117.601293 40 6480ft 95kts
10-Oct-18 14:22 33.074223 -117.602451 57 5791ft 92kts
10-Oct-18 14:23 33.076279 -117.601570 7 5056ft 90kts
10-Oct-18 14:24 33.076389 -117.601974 15 4492ft 85kts
10-Oct-18 14:25 33.072701 -117.605966 127 3858ft 98kts
10-Oct-18 14:26 33.059415 -117.588341 134 3576ft 101kts
10-Oct-18 14:27 33.044611 -117.572048 134 3534ft 100kts
10-Oct-18 14:28 33.029801 -117.556265 137 3523ft 97kts
10-Oct-18 14:29 33.016245 -117.540326 130 3531ft 94kts
10-Oct-18 14:30 33.004535 -117.522082 127 3523ft 95kts
10-Oct-18 14:31 32.994559 -117.503544 122 3549ft 92kts
10-Oct-18 14:32 32.981509 -117.488004 137 3553ft 93kts
10-Oct-18 14:33 32.968672 -117.473242 131 3560ft 93kts
10-Oct-18 14:34 32.955223 -117.453523 130 3566ft 93kts
10-Oct-18 14:35 32.946055 -117.440577 130 3570ft 93kts
10-Oct-18 14:36 32.932818 -117.425284 139 3577ft 93kts
10-Oct-18 14:37 32.917425 -117.412041 137 3597ft 91kts
10-Oct-18 14:38 32.903240 -117.398093 141 3602ft 92kts
10-Oct-18 14:39 32.890928 -117.383676 133 3602ft 93kts
10-Oct-18 14:40 32.877858 -117.367756 134 3588ft 94kts
10-Oct-18 14:41 32.864941 -117.352913 136 3581ft 94kts
10-Oct-18 14:42 32.851497 -117.339036 140 3514ft 96kts
10-Oct-18 14:43 32.837074 -117.323845 138 3120ft 125kts
10-Oct-18 14:44 32.820182 -117.306121 143 2826ft 121kts
10-Oct-18 14:45 32.804417 -117.287872 129 2312ft 133kts
10-Oct-18 14:46 32.790209 -117.267078 125 1954ft 128kts
10-Oct-18 14:47 32.778534 -117.246203 121 1566ft 130kts
10-Oct-18 14:48 32.767018 -117.225555 124 1306ft 123kts
10-Oct-18 14:49 32.756857 -117.206875 122 1088ft 122kts
10-Oct-18 14:50 32.747017 -117.190951 111 1138ft 87kts
10-Oct-18 14:51 32.743119 -117.173995 104 1177ft 96kts
10-Oct-18 14:52 32.737395 -117.163646 188 855ft 73kts
10-Oct-18 14:53 32.729891 -117.174171 275 267ft 80kts
10-Oct-18 14:54 32.732486 -117.184251 335 15ft 12kts
10-Oct-18 14:55 32.733055 -117.184234 18 16ft 0kts
10-Oct-18 14:56 32.732935 -117.182237 98 16ft 0kts

Navigation Log

Ident Type
1. KLAX Airport
2. KSAN Airport